In Rescue
 
Open Full Screen Window  High Contrast Mode
September 21, 2020 11:24 PM EDT
Weather Information
Wind Direction
  ---
Wind Speed
  00 kt (0 mph)
Wind Gust
  00 kt (0 mph)
Altimeter
30.34 in
Visibility
10 SM
Temperature
10° C
50° F
Dewpoint
06° C
43° F
Humidity
76%
1hr Rain Fall
00.00 in.
24hr Rain Fall
00.00 in.
Sky Condition
Clear
VFR

METAR KDLZ 220324Z AUTO 00000KT 10SM CLR 10/06 A3034 RMK AO2

FAA Disclaimer: The data displayed is for advisory purposes only and is not to be used for flight planning or operations.